Time;durP1;ratioP1;P1;durP2;ratioP2;P2;SDS_P1;SDS_P2;PMS_P1;PMS_P2;Temp;Humidity;BMP_temperature;BMP_pressure;BME280_temperature;BME280_humidity;BME280_pressure;Samples;Min_cycle;Max_cycle;Signal;HPM_P1;HPM_P2
2023/01/28 00:01:59;;;;;;;;;;;3.10;99.90;;;;;;5027119;28;20015;-74
2023/01/28 00:04:25;;;;;;;;;;;3.10;99.90;;;;;;5024099;28;20387;-74
2023/01/28 00:06:52;;;;;;;;;;;3.10;99.90;;;;;;5043887;28;20280;-75
2023/01/28 00:09:18;;;;;;;;;;;3.10;99.90;;;;;;5025340;28;19921;-74
2023/01/28 00:11:46;;;;;;;;;;;3.10;99.90;;;;;;5046578;28;19943;-75
2023/01/28 00:14:15;;;;;;;;;;;3.70;99.90;;;;;;5041697;28;19928;-75
2023/01/28 00:16:41;;;;;;;;;;;3.10;99.90;;;;;;5044195;28;20382;-75
2023/01/28 00:19:07;;;;;;;;;;;3.00;99.90;;;;;;5026251;28;19921;-75
2023/01/28 00:21:35;;;;;;;;;;;3.00;99.90;;;;;;5024038;28;19925;-74
2023/01/28 00:24:02;;;;;;;;;;;3.00;99.90;;;;;;5026625;28;20372;-74
2023/01/28 00:26:28;;;;;;;;;;;3.00;99.90;;;;;;5040036;28;19921;-74
2023/01/28 00:28:53;;;;;;;;;;;3.00;99.90;;;;;;5030060;28;20036;-75
2023/01/28 00:31:20;;;;;;;;;;;3.00;99.90;;;;;;5024086;28;19928;-76
2023/01/28 00:33:47;;;;;;;;;;;3.00;99.90;;;;;;5025510;28;19925;-75
2023/01/28 00:36:13;;;;;;;;;;;3.00;99.90;;;;;;5024905;28;20352;-75
2023/01/28 00:38:38;;;;;;;;;;;3.00;99.90;;;;;;5023262;28;19921;-75
2023/01/28 00:41:09;;;;;;;;;;;3.00;99.90;;;;;;5023682;28;20032;-74
2023/01/28 00:43:35;;;;;;;;;;;2.90;99.90;;;;;;5025966;28;19924;-74
2023/01/28 00:46:00;;;;;;;;;;;2.90;99.90;;;;;;5032338;28;19924;-74
2023/01/28 00:48:26;;;;;;;;;;;3.00;99.90;;;;;;5061165;28;19966;-74
2023/01/28 00:50:52;;;;;;;;;;;2.90;99.90;;;;;;5045737;28;19921;-75
2023/01/28 00:53:17;;;;;;;;;;;2.90;99.90;;;;;;5060850;28;19973;-74
2023/01/28 00:55:43;;;;;;;;;;;3.00;99.90;;;;;;5044173;28;19916;-74
2023/01/28 00:58:08;;;;;;;;;;;2.90;99.90;;;;;;5062060;28;19920;-74
2023/01/28 01:00:34;;;;;;;;;;;2.90;99.90;;;;;;5062611;28;19921;-74
2023/01/28 01:02:59;;;;;;;;;;;2.80;99.90;;;;;;5060867;28;20324;-74
2023/01/28 01:05:25;;;;;;;;;;;2.80;99.90;;;;;;5046317;28;19920;-74
2023/01/28 01:07:50;;;;;;;;;;;2.80;99.90;;;;;;5055764;28;20007;-75
2023/01/28 01:10:18;;;;;;;;;;;2.80;99.90;;;;;;5063304;28;19927;-75
2023/01/28 01:12:47;;;;;;;;;;;2.80;99.90;;;;;;5061435;28;19928;-75
2023/01/28 01:15:12;;;;;;;;;;;2.80;99.90;;;;;;5062185;28;19921;-75
2023/01/28 01:17:39;;;;;;;;;;;2.80;99.90;;;;;;5041743;28;19928;-75
2023/01/28 01:20:06;;;;;;;;;;;2.80;99.90;;;;;;5062243;28;19928;-75
2023/01/28 01:22:33;;;;;;;;;;;2.80;99.90;;;;;;5056809;28;20380;-75
2023/01/28 01:24:59;;;;;;;;;;;2.80;99.90;;;;;;5041279;28;19921;-75
2023/01/28 01:27:24;;;;;;;;;;;2.80;99.90;;;;;;5062821;28;20299;-75
2023/01/28 01:29:50;;;;;;;;;;;2.80;99.90;;;;;;5042283;28;19920;-75
2023/01/28 01:32:15;;;;;;;;;;;2.80;99.90;;;;;;5045280;28;19970;-75
2023/01/28 01:34:41;;;;;;;;;;;2.80;99.90;;;;;;5040695;28;19924;-75
2023/01/28 01:37:07;;;;;;;;;;;2.90;99.90;;;;;;5043051;28;20007;-75
2023/01/28 01:39:36;;;;;;;;;;;2.80;99.90;;;;;;5061651;28;19968;-74
2023/01/28 01:42:04;;;;;;;;;;;5.60;99.90;;;;;;5043151;28;19995;-75
2023/01/28 01:44:54;;;;;;;;;;;2.60;99.90;;;;;;5041537;28;19925;-75
2023/01/28 01:47:23;;;;;;;;;;;2.90;99.90;;;;;;5036949;28;19925;-75
2023/01/28 01:49:48;;;;;;;;;;;2.90;99.90;;;;;;5025184;28;19999;-75
2023/01/28 01:52:16;;;;;;;;;;;2.80;99.90;;;;;;5017940;28;20021;-75
2023/01/28 01:54:45;;;;;;;;;;;2.80;99.90;;;;;;5040204;28;19952;-75
2023/01/28 01:57:16;;;;;;;;;;;4.70;99.90;;;;;;5024266;28;19928;-75
2023/01/28 01:59:42;;;;;;;;;;;4.70;99.90;;;;;;5022940;28;19925;-75
2023/01/28 02:02:08;;;;;;;;;;;2.80;99.90;;;;;;5042608;28;19921;-74
2023/01/28 02:04:44;;;;;;;;;;;5.20;99.90;;;;;;5040215;28;20330;-75
2023/01/28 02:07:11;;;;;;;;;;;2.80;99.90;;;;;;5024932;28;19971;-74
2023/01/28 02:09:37;;;;;;;;;;;2.70;99.90;;;;;;5022052;28;19928;-74
2023/01/28 02:12:06;;;;;;;;;;;2.70;99.90;;;;;;5039564;28;20315;-75
2023/01/28 02:14:37;;;;;;;;;;;2.70;99.90;;;;;;5042148;28;19964;-75
2023/01/28 02:17:03;;;;;;;;;;;4.40;99.90;;;;;;5022256;28;19921;-74
2023/01/28 02:19:36;;;;;;;;;;;4.10;99.90;;;;;;5041593;28;20432;-74
2023/01/28 02:22:28;;;;;;;;;;;4.60;99.90;;;;;;5021532;28;19967;-74
2023/01/28 02:24:54;;;;;;;;;;;2.60;99.90;;;;;;5020824;28;20744;-74
2023/01/28 02:27:26;;;;;;;;;;;4.70;99.90;;;;;;5024682;28;19979;-75
2023/01/28 02:29:52;;;;;;;;;;;2.30;99.90;;;;;;5040832;28;19928;-74
2023/01/28 02:32:21;;;;;;;;;;;2.40;99.90;;;;;;5023737;28;19921;-74
2023/01/28 02:34:50;;;;;;;;;;;2.40;99.90;;;;;;5040687;28;19917;-74
2023/01/28 02:37:24;;;;;;;;;;;4.50;99.90;;;;;;5042092;28;19967;-75
2023/01/28 02:39:51;;;;;;;;;;;2.60;99.90;;;;;;5036049;28;20304;-75
2023/01/28 02:42:18;;;;;;;;;;;4.10;99.90;;;;;;5041937;28;20007;-74
2023/01/28 02:44:44;;;;;;;;;;;4.00;99.90;;;;;;5023391;28;19944;-74
2023/01/28 02:49:55;;;;;;;;;;;2.40;99.90;;;;;;5058259;28;20365;-74
2023/01/28 02:55:40;;;;;;;;;;;2.50;99.90;;;;;;5060151;28;19921;-74
2023/01/28 02:58:05;;;;;;;;;;;2.50;99.90;;;;;;5044529;28;20261;-74
2023/01/28 03:00:37;;;;;;;;;;;4.60;99.90;;;;;;5044642;28;19991;-74
2023/01/28 03:03:08;;;;;;;;;;;2.50;99.90;;;;;;5027214;28;19921;-73
2023/01/28 03:06:02;;;;;;;;;;;2.50;99.90;;;;;;5048638;28;20350;-74
2023/01/28 03:38:57;;;;;;;;;;;2.40;99.90;;;;;;5061800;28;20379;-74
2023/01/28 03:41:24;;;;;;;;;;;4.50;99.90;;;;;;5039517;28;19937;-74
2023/01/28 03:43:50;;;;;;;;;;;3.40;99.90;;;;;;5064827;28;19931;-74
2023/01/28 03:46:17;;;;;;;;;;;2.30;99.90;;;;;;5062702;28;19960;-74
2023/01/28 03:48:42;;;;;;;;;;;2.30;99.90;;;;;;5062442;28;20441;-74
2023/01/28 03:51:08;;;;;;;;;;;2.40;99.90;;;;;;5061271;28;19920;-74
2023/01/28 03:53:34;;;;;;;;;;;4.60;99.90;;;;;;5040217;28;19982;-74
2023/01/28 03:55:59;;;;;;;;;;;2.40;99.90;;;;;;5060990;28;19932;-73
2023/01/28 03:58:39;;;;;;;;;;;2.50;99.90;;;;;;5058072;28;19928;-75
2023/01/28 04:01:04;;;;;;;;;;;2.40;99.90;;;;;;5030724;28;19921;-74
2023/01/28 04:03:30;;;;;;;;;;;2.30;99.90;;;;;;5045951;28;19924;-74
2023/01/28 04:05:58;;;;;;;;;;;2.40;99.90;;;;;;5039234;28;20062;-74
2023/01/28 04:08:24;;;;;;;;;;;2.40;99.90;;;;;;5058083;28;19928;-75
2023/01/28 04:10:49;;;;;;;;;;;2.50;99.90;;;;;;5063996;28;20364;-75
2023/01/28 04:13:15;;;;;;;;;;;2.50;99.90;;;;;;5037993;28;19928;-75
2023/01/28 04:15:42;;;;;;;;;;;4.20;99.90;;;;;;5044947;28;19920;-75
2023/01/28 04:18:08;;;;;;;;;;;4.00;99.90;;;;;;5061945;28;19924;-75
2023/01/28 04:20:33;;;;;;;;;;;1.80;99.90;;;;;;5063954;28;19925;-74
2023/01/28 04:22:59;;;;;;;;;;;3.40;99.90;;;;;;5038765;28;20368;-74
2023/01/28 04:25:24;;;;;;;;;;;2.10;99.90;;;;;;5039114;28;19969;-74
2023/01/28 04:27:50;;;;;;;;;;;3.90;99.90;;;;;;5037432;28;20371;-75
2023/01/28 04:30:16;;;;;;;;;;;4.00;99.90;;;;;;5060466;28;19928;-75
2023/01/28 04:32:41;;;;;;;;;;;2.30;99.90;;;;;;5063581;28;19990;-75
2023/01/28 04:35:07;;;;;;;;;;;2.20;99.90;;;;;;5052618;28;19920;-75
2023/01/28 04:37:32;;;;;;;;;;;2.20;99.90;;;;;;5031165;28;19967;-74
2023/01/28 04:39:58;;;;;;;;;;;2.20;99.90;;;;;;5053744;28;19927;-74
2023/01/28 04:42:23;;;;;;;;;;;2.20;99.90;;;;;;5061832;28;19920;-74
2023/01/28 04:44:49;;;;;;;;;;;1.80;99.90;;;;;;5045637;28;20019;-74
2023/01/28 04:47:14;;;;;;;;;;;1.80;99.90;;;;;;5063605;28;20360;-74
2023/01/28 04:49:40;;;;;;;;;;;2.00;99.90;;;;;;5061730;28;19920;-74
2023/01/28 04:52:05;;;;;;;;;;;1.90;99.90;;;;;;5037736;28;20368;-75
2023/01/28 04:54:31;;;;;;;;;;;2.00;99.90;;;;;;5062704;28;19921;-74
2023/01/28 04:56:56;;;;;;;;;;;2.00;99.90;;;;;;5062454;28;19928;-74
2023/01/28 04:59:22;;;;;;;;;;;1.80;99.90;;;;;;5038329;28;19927;-74
2023/01/28 05:01:48;;;;;;;;;;;2.00;99.90;;;;;;5056674;28;19916;-75
2023/01/28 05:04:15;;;;;;;;;;;1.70;99.90;;;;;;5058449;28;19927;-75
2023/01/28 05:06:40;;;;;;;;;;;2.00;99.90;;;;;;5055875;28;19924;-73
2023/01/28 05:09:06;;;;;;;;;;;1.80;99.90;;;;;;5039344;28;19935;-73
2023/01/28 05:11:31;;;;;;;;;;;1.90;99.90;;;;;;5057034;28;19920;-74
2023/01/28 05:13:57;;;;;;;;;;;4.00;99.90;;;;;;5054484;28;19921;-74
2023/01/28 05:16:22;;;;;;;;;;;4.10;99.90;;;;;;5029481;28;19966;-73
2023/01/28 05:18:50;;;;;;;;;;;4.40;99.90;;;;;;5055873;28;20011;-73
2023/01/28 05:21:16;;;;;;;;;;;1.80;99.90;;;;;;5052213;28;19921;-73
2023/01/28 05:23:41;;;;;;;;;;;1.60;99.90;;;;;;5053310;28;19921;-74
2023/01/28 05:26:07;;;;;;;;;;;1.70;99.90;;;;;;5053119;28;20338;-74
2023/01/28 05:28:32;;;;;;;;;;;2.20;99.90;;;;;;5032231;28;19929;-74
2023/01/28 05:31:02;;;;;;;;;;;3.50;99.90;;;;;;5053107;28;20299;-74
2023/01/28 05:33:27;;;;;;;;;;;2.00;99.90;;;;;;5053607;28;20295;-74
2023/01/28 05:35:53;;;;;;;;;;;1.90;99.90;;;;;;5034823;28;20031;-74
2023/01/28 05:38:18;;;;;;;;;;;4.90;99.90;;;;;;5037020;28;19921;-73
2023/01/28 05:40:45;;;;;;;;;;;1.60;99.90;;;;;;5054442;28;19981;-75
2023/01/28 05:43:11;;;;;;;;;;;4.10;99.90;;;;;;5030799;28;19967;-74
2023/01/28 05:45:36;;;;;;;;;;;1.60;99.90;;;;;;5063744;28;19967;-74
2023/01/28 05:48:02;;;;;;;;;;;2.00;99.90;;;;;;5041002;28;20344;-74
2023/01/28 05:50:27;;;;;;;;;;;1.90;99.90;;;;;;5038494;28;20388;-75
2023/01/28 05:52:53;;;;;;;;;;;1.80;99.90;;;;;;5061757;28;19921;-75
2023/01/28 05:55:18;;;;;;;;;;;1.90;99.90;;;;;;5032944;28;19944;-75
2023/01/28 05:57:44;;;;;;;;;;;1.70;99.90;;;;;;5044693;28;20387;-73
2023/01/28 06:00:10;;;;;;;;;;;4.30;99.90;;;;;;5037994;28;19924;-74
2023/01/28 06:02:41;;;;;;;;;;;1.90;99.90;;;;;;5059430;28;19928;-74
2023/01/28 06:05:07;;;;;;;;;;;4.60;99.90;;;;;;5057215;28;19928;-74
2023/01/28 06:07:32;;;;;;;;;;;1.90;99.90;;;;;;5045557;28;19920;-74
2023/01/28 06:09:58;;;;;;;;;;;1.50;99.90;;;;;;5059203;28;19927;-74
2023/01/28 06:12:23;;;;;;;;;;;3.70;99.90;;;;;;5031816;28;19967;-74
2023/01/28 06:14:49;;;;;;;;;;;3.60;99.90;;;;;;5038278;28;19925;-74
2023/01/28 06:17:14;;;;;;;;;;;1.70;99.90;;;;;;5061205;28;19920;-74
2023/01/28 06:19:40;;;;;;;;;;;1.60;99.90;;;;;;5037778;28;20326;-74
2023/01/28 06:22:05;;;;;;;;;;;3.70;99.90;;;;;;5060024;28;20296;-73
2023/01/28 06:24:31;;;;;;;;;;;1.00;99.90;;;;;;5046794;28;19943;-73
2023/01/28 06:26:57;;;;;;;;;;;1.00;99.90;;;;;;5045682;28;20416;-73
2023/01/28 06:29:22;;;;;;;;;;;0.90;99.90;;;;;;5066283;28;20455;-73
2023/01/28 06:31:48;;;;;;;;;;;2.50;99.90;;;;;;5046083;28;19920;-73
2023/01/28 06:34:14;;;;;;;;;;;0.90;99.90;;;;;;5041096;28;19916;-73
2023/01/28 06:36:39;;;;;;;;;;;3.00;99.90;;;;;;5041312;28;19921;-73
2023/01/28 06:39:05;;;;;;;;;;;2.60;99.90;;;;;;5040361;28;19920;-73
2023/01/28 06:41:30;;;;;;;;;;;2.00;99.90;;;;;;5063376;28;19917;-73
2023/01/28 06:43:58;;;;;;;;;;;0.70;99.90;;;;;;5065662;28;20376;-73
2023/01/28 06:46:24;;;;;;;;;;;0.80;99.90;;;;;;5041953;28;19935;-73
2023/01/28 06:48:50;;;;;;;;;;;0.60;99.90;;;;;;5065443;28;19932;-74
2023/01/28 06:51:15;;;;;;;;;;;0.70;99.90;;;;;;5061240;28;19924;-74
2023/01/28 06:53:41;;;;;;;;;;;0.70;99.90;;;;;;5047131;28;19947;-74
2023/01/28 06:56:07;;;;;;;;;;;0.50;99.90;;;;;;5040856;28;19920;-74
2023/01/28 06:58:35;;;;;;;;;;;0.70;99.90;;;;;;5063461;28;19924;-74
2023/01/28 07:01:01;;;;;;;;;;;0.40;99.90;;;;;;5063710;28;19963;-74
2023/01/28 07:03:26;;;;;;;;;;;0.60;99.90;;;;;;5048737;28;19956;-74
2023/01/28 07:05:52;;;;;;;;;;;0.60;99.90;;;;;;5040950;28;19928;-73
2023/01/28 07:08:17;;;;;;;;;;;3.70;99.90;;;;;;5039008;28;19920;-74
2023/01/28 07:10:43;;;;;;;;;;;0.10;99.90;;;;;;5045717;28;19924;-73
2023/01/28 07:13:09;;;;;;;;;;;0.40;99.90;;;;;;5063289;28;20012;-74
2023/01/28 07:15:34;;;;;;;;;;;0.30;99.90;;;;;;5064650;28;20014;-74
2023/01/28 07:18:00;;;;;;;;;;;2.70;99.90;;;;;;5040595;28;19925;-74
2023/01/28 07:20:25;;;;;;;;;;;2.60;99.90;;;;;;5047167;28;19921;-74
2023/01/28 07:22:51;;;;;;;;;;;0.20;99.90;;;;;;5039996;28;19956;-74
2023/01/28 07:25:17;;;;;;;;;;;0.00;99.90;;;;;;5044748;28;19925;-74
2023/01/28 07:27:49;;;;;;;;;;;0.10;99.90;;;;;;5039928;28;19966;-74
2023/01/28 07:30:15;;;;;;;;;;;0.00;99.90;;;;;;5065092;28;19925;-74
2023/01/28 07:32:44;;;;;;;;;;;0.10;99.90;;;;;;5030899;28;20284;-74
2023/01/28 07:35:10;;;;;;;;;;;0.00;99.90;;;;;;5044159;28;19920;-74
2023/01/28 07:37:35;;;;;;;;;;;0.00;99.90;;;;;;5064184;28;20491;-74
2023/01/28 07:40:01;;;;;;;;;;;-0.10;99.90;;;;;;5064329;28;19926;-73
2023/01/28 07:42:27;;;;;;;;;;;-0.20;99.90;;;;;;5064185;28;19924;-72
2023/01/28 07:44:52;;;;;;;;;;;-0.20;99.90;;;;;;5060917;28;20260;-75
2023/01/28 07:47:18;;;;;;;;;;;-2.20;99.90;;;;;;5064966;28;20011;-72
2023/01/28 07:49:43;;;;;;;;;;;0.00;99.90;;;;;;5040974;28;20364;-73
2023/01/28 07:52:09;;;;;;;;;;;-0.10;99.90;;;;;;5046129;28;20300;-73
2023/01/28 07:54:35;;;;;;;;;;;-0.10;99.90;;;;;;5062028;28;19924;-74
2023/01/28 07:57:00;;;;;;;;;;;-0.30;99.90;;;;;;5063053;28;19924;-74
2023/01/28 07:59:26;;;;;;;;;;;0.00;99.90;;;;;;5064331;28;19927;-74
2023/01/28 08:01:53;;;;;;;;;;;2.90;99.90;;;;;;5038906;28;20324;-74
2023/01/28 08:04:18;;;;;;;;;;;0.00;99.90;;;;;;5035181;28;19916;-73
2023/01/28 08:06:44;;;;;;;;;;;0.00;99.90;;;;;;5065247;28;19927;-74
2023/01/28 08:09:09;;;;;;;;;;;-0.10;99.90;;;;;;5033826;28;20394;-74
2023/01/28 08:11:37;;;;;;;;;;;-0.10;99.90;;;;;;5039817;28;21485;-73
2023/01/28 08:14:02;;;;;;;;;;;2.70;99.90;;;;;;5033218;28;20007;-74
2023/01/28 08:16:28;;;;;;;;;;;3.20;99.90;;;;;;5062527;28;19996;-74
2023/01/28 08:18:54;;;;;;;;;;;2.20;99.90;;;;;;5045451;28;19938;-74
2023/01/28 08:21:20;;;;;;;;;;;0.30;99.90;;;;;;5062078;28;20343;-74
2023/01/28 08:23:45;;;;;;;;;;;0.40;99.90;;;;;;5035266;28;19928;-74
2023/01/28 08:26:11;;;;;;;;;;;0.40;99.90;;;;;;5026743;28;19924;-74
2023/01/28 08:28:36;;;;;;;;;;;0.50;99.90;;;;;;5064570;28;19920;-74
2023/01/28 08:31:02;;;;;;;;;;;0.20;99.90;;;;;;5060926;28;19935;-73
2023/01/28 08:33:27;;;;;;;;;;;1.70;99.90;;;;;;5063060;28;19920;-78
2023/01/28 08:35:53;;;;;;;;;;;0.50;99.90;;;;;;5045062;28;19921;-74
2023/01/28 08:38:19;;;;;;;;;;;0.60;99.90;;;;;;5037159;28;19968;-77
2023/01/28 08:40:45;;;;;;;;;;;0.60;99.90;;;;;;5059729;28;19967;-79
2023/01/28 08:43:10;;;;;;;;;;;0.60;99.90;;;;;;5063879;28;19924;-79
2023/01/28 08:45:37;;;;;;;;;;;0.50;99.90;;;;;;5037885;28;19927;-74
2023/01/28 08:48:04;;;;;;;;;;;0.60;99.90;;;;;;5041896;28;20383;-73
2023/01/28 08:50:33;;;;;;;;;;;0.70;99.90;;;;;;5037574;28;19936;-72
2023/01/28 08:53:00;;;;;;;;;;;1.10;99.90;;;;;;5030292;28;19935;-74
2023/01/28 08:55:26;;;;;;;;;;;5.10;99.90;;;;;;5063299;28;19928;-75
2023/01/28 08:57:52;;;;;;;;;;;5.50;99.90;;;;;;5043559;28;19931;-75
2023/01/28 09:00:18;;;;;;;;;;;6.50;99.90;;;;;;5027692;28;20291;-75
2023/01/28 09:02:43;;;;;;;;;;;6.80;99.90;;;;;;5063512;28;19960;-74
2023/01/28 09:05:09;;;;;;;;;;;8.40;99.90;;;;;;5037317;28;19944;-73
2023/01/28 09:07:35;;;;;;;;;;;7.30;99.90;;;;;;5038252;28;20022;-73
2023/01/28 09:10:01;;;;;;;;;;;7.30;99.90;;;;;;5057495;28;20019;-73
2023/01/28 09:12:26;;;;;;;;;;;7.40;99.90;;;;;;5062534;28;19920;-73
2023/01/28 09:14:52;;;;;;;;;;;6.30;99.90;;;;;;5043164;28;20362;-73
2023/01/28 09:17:20;;;;;;;;;;;6.20;99.90;;;;;;5058739;28;19925;-73
2023/01/28 09:19:45;;;;;;;;;;;6.40;99.90;;;;;;5061169;28;20368;-73
2023/01/28 09:22:11;;;;;;;;;;;5.80;99.90;;;;;;5029310;28;19924;-74
2023/01/28 09:24:36;;;;;;;;;;;4.70;99.90;;;;;;5045704;28;19920;-73
2023/01/28 09:27:02;;;;;;;;;;;4.00;99.90;;;;;;5030058;28;20403;-72
2023/01/28 09:29:27;;;;;;;;;;;3.80;99.90;;;;;;5025983;28;20288;-73
2023/01/28 09:31:53;;;;;;;;;;;3.60;99.90;;;;;;5062443;28;20349;-74
2023/01/28 09:34:19;;;;;;;;;;;3.50;99.90;;;;;;5042586;28;19972;-74
2023/01/28 09:36:44;;;;;;;;;;;3.30;99.90;;;;;;5061991;28;20283;-74
2023/01/28 09:39:10;;;;;;;;;;;5.20;99.90;;;;;;5043659;28;19920;-74
2023/01/28 09:41:54;;;;;;;;;;;3.40;99.90;;;;;;5060182;28;19921;-73
2023/01/28 09:44:23;;;;;;;;;;;3.40;99.90;;;;;;5042717;28;19928;-75
2023/01/28 09:46:49;;;;;;;;;;;3.50;99.90;;;;;;5036540;28;19968;-74
2023/01/28 09:49:30;;;;;;;;;;;3.60;99.90;;;;;;5036815;28;19924;-73
2023/01/28 09:51:55;;;;;;;;;;;3.70;99.90;;;;;;5042352;28;19924;-74
2023/01/28 09:54:33;;;;;;;;;;;3.70;99.90;;;;;;5062428;28;20284;-74
2023/01/28 09:57:05;;;;;;;;;;;5.60;99.90;;;;;;5056235;28;19921;-74
2023/01/28 09:59:33;;;;;;;;;;;7.60;99.90;;;;;;5066851;28;19925;-80
2023/01/28 10:02:06;;;;;;;;;;;9.00;99.90;;;;;;5062624;28;19943;-77
2023/01/28 10:04:31;;;;;;;;;;;10.20;99.90;;;;;;5041086;28;19920;-80
2023/01/28 10:06:58;;;;;;;;;;;10.70;99.90;;;;;;5038873;28;20008;-83
2023/01/28 10:09:37;;;;;;;;;;;11.20;99.90;;;;;;5048616;28;19927;-81
2023/01/28 10:12:21;;;;;;;;;;;10.50;99.90;;;;;;5060703;28;20288;-77
2023/01/28 10:15:08;;;;;;;;;;;10.00;99.90;;;;;;5064241;28;20062;-81
2023/01/28 10:17:38;;;;;;;;;;;9.00;99.90;;;;;;5033012;28;19967;-90
2023/01/28 10:20:16;;;;;;;;;;;8.40;99.90;;;;;;5062107;28;20453;-76
2023/01/28 10:22:45;;;;;;;;;;;7.90;99.90;;;;;;5041069;28;19921;-75
2023/01/28 10:25:18;;;;;;;;;;;7.80;99.90;;;;;;5036679;28;19975;-85
2023/01/28 10:27:47;;;;;;;;;;;7.40;99.90;;;;;;5037228;28;20372;-81
2023/01/28 10:30:18;;;;;;;;;;;7.30;99.90;;;;;;5044041;28;19928;-90
2023/01/28 10:32:51;;;;;;;;;;;7.20;99.90;;;;;;5046587;28;19966;-81
2023/01/28 10:35:17;;;;;;;;;;;7.10;99.90;;;;;;5064991;28;19921;-75
2023/01/28 10:37:42;;;;;;;;;;;7.00;99.90;;;;;;5066364;28;19920;-83
2023/01/28 10:40:12;;;;;;;;;;;7.50;99.90;;;;;;5037799;28;19927;-76
2023/01/28 10:42:37;;;;;;;;;;;6.80;99.90;;;;;;5065694;28;19924;-76
2023/01/28 10:45:22;;;;;;;;;;;6.70;99.90;;;;;;5045652;28;19931;-77
2023/01/28 10:47:51;;;;;;;;;;;6.50;99.90;;;;;;5059202;28;20342;-84
2023/01/28 10:50:19;;;;;;;;;;;6.40;99.90;;;;;;5044643;28;19920;-78
2023/01/28 10:52:54;;;;;;;;;;;6.10;99.90;;;;;;5036327;28;20302;-72
2023/01/28 10:55:23;;;;;;;;;;;6.00;99.90;;;;;;5030683;28;20323;-72
2023/01/28 10:57:49;;;;;;;;;;;8.00;99.90;;;;;;5065362;28;20019;-73
2023/01/28 11:00:22;;;;;;;;;;;7.30;99.90;;;;;;5040082;28;20015;-73
2023/01/28 11:02:48;;;;;;;;;;;5.80;99.90;;;;;;5058140;28;19927;-73
2023/01/28 11:05:19;;;;;;;;;;;8.10;99.90;;;;;;5061095;28;19920;-74
2023/01/28 11:07:47;;;;;;;;;;;5.80;99.90;;;;;;5058068;28;19921;-74
2023/01/28 11:10:27;;;;;;;;;;;5.70;99.90;;;;;;5054695;28;19920;-74
2023/01/28 11:12:53;;;;;;;;;;;5.90;99.90;;;;;;5058539;28;19968;-73
2023/01/28 11:15:19;;;;;;;;;;;6.90;99.90;;;;;;5055299;28;19928;-73
2023/01/28 11:17:48;;;;;;;;;;;5.80;99.90;;;;;;5053730;28;19921;-73
2023/01/28 11:20:19;;;;;;;;;;;5.70;99.90;;;;;;5034775;28;19963;-73
2023/01/28 11:22:45;;;;;;;;;;;5.70;99.90;;;;;;5058801;28;19924;-82
2023/01/28 11:25:26;;;;;;;;;;;6.00;99.90;;;;;;5044397;28;19920;-74
2023/01/28 11:27:52;;;;;;;;;;;5.70;99.90;;;;;;5057878;28;20303;-80
2023/01/28 11:30:21;;;;;;;;;;;5.90;99.90;;;;;;5045198;28;19924;-75
2023/01/28 11:32:53;;;;;;;;;;;5.90;99.90;;;;;;5059538;28;20284;-77
2023/01/28 11:35:27;;;;;;;;;;;6.20;99.90;;;;;;5066380;28;19920;-74
2023/01/28 11:37:53;;;;;;;;;;;7.10;99.90;;;;;;5064400;28;20018;-76
2023/01/28 11:40:21;;;;;;;;;;;9.30;99.90;;;;;;5039888;28;19963;-76
2023/01/28 11:42:51;;;;;;;;;;;11.20;99.90;;;;;;5058774;28;19974;-76
2023/01/28 11:45:18;;;;;;;;;;;12.90;99.90;;;;;;5029715;28;19921;-76
2023/01/28 11:47:48;;;;;;;;;;;13.70;99.90;;;;;;5061862;28;20375;-75
2023/01/28 11:50:25;;;;;;;;;;;13.70;97.90;;;;;;5062354;28;19921;-74
2023/01/28 11:52:51;;;;;;;;;;;12.30;99.00;;;;;;5064026;28;19939;-74
2023/01/28 11:55:35;;;;;;;;;;;14.60;99.90;;;;;;5038706;28;19920;-75
2023/01/28 11:58:00;;;;;;;;;;;10.30;99.90;;;;;;5063760;28;20446;-74
2023/01/28 12:00:35;;;;;;;;;;;9.60;99.90;;;;;;5039017;28;19920;-75
2023/01/28 12:03:19;;;;;;;;;;;8.60;99.90;;;;;;5031294;28;19996;-74
2023/01/28 12:05:47;;;;;;;;;;;8.40;99.90;;;;;;5060554;28;19920;-74
2023/01/28 12:08:24;;;;;;;;;;;8.40;99.90;;;;;;5063136;28;20245;-74
2023/01/28 12:11:00;;;;;;;;;;;7.90;99.90;;;;;;5061524;28;19921;-74
2023/01/28 12:13:37;;;;;;;;;;;7.70;99.90;;;;;;5063705;28;19943;-74
2023/01/28 12:16:15;;;;;;;;;;;7.60;99.90;;;;;;5056988;28;19928;-75
2023/01/28 12:18:58;;;;;;;;;;;7.60;99.90;;;;;;5059681;28;19976;-75
2023/01/28 12:21:30;;;;;;;;;;;8.60;99.90;;;;;;5041383;28;20294;-75
2023/01/28 12:24:01;;;;;;;;;;;9.40;99.90;;;;;;5061727;28;19924;-75
2023/01/28 12:26:30;;;;;;;;;;;9.60;99.90;;;;;;5061213;28;19928;-76
2023/01/28 12:28:56;;;;;;;;;;;9.60;99.90;;;;;;5063476;28;19921;-75
2023/01/28 12:31:40;;;;;;;;;;;9.60;99.90;;;;;;5037868;28;19921;-75
2023/01/28 12:34:24;;;;;;;;;;;9.70;99.90;;;;;;5029415;28;19925;-75
2023/01/28 12:36:55;;;;;;;;;;;9.70;99.90;;;;;;5061616;28;19926;-76
2023/01/28 12:39:33;;;;;;;;;;;10.20;99.90;;;;;;5039329;28;19929;-75
2023/01/28 12:42:32;;;;;;;;;;;9.90;99.90;;;;;;5030269;28;19925;-75
2023/01/28 12:45:03;;;;;;;;;;;9.60;99.90;;;;;;4993809;28;19992;-75
2023/01/28 12:47:38;;;;;;;;;;;9.20;99.90;;;;;;5057772;28;19920;-75
2023/01/28 12:50:21;;;;;;;;;;;8.60;99.90;;;;;;5028804;28;19925;-75
2023/01/28 12:52:51;;;;;;;;;;;8.20;99.90;;;;;;5036673;28;19964;-75
2023/01/28 12:55:19;;;;;;;;;;;10.00;99.90;;;;;;5063342;28;19952;-74
2023/01/28 12:57:45;;;;;;;;;;;7.70;99.90;;;;;;5043054;28;20334;-74
2023/01/28 13:00:32;;;;;;;;;;;7.60;99.90;;;;;;5062295;28;20418;-75
2023/01/28 13:03:17;;;;;;;;;;;7.50;99.90;;;;;;5057268;28;19928;-75
2023/01/28 13:05:48;;;;;;;;;;;7.70;99.90;;;;;;5061217;28;19936;-75
2023/01/28 13:08:18;;;;;;;;;;;7.50;99.90;;;;;;5061756;28;19921;-75
2023/01/28 13:10:44;;;;;;;;;;;8.70;99.90;;;;;;5038252;28;19929;-75
2023/01/28 13:13:24;;;;;;;;;;;8.30;99.90;;;;;;5043911;28;19990;-75
2023/01/28 13:15:49;;;;;;;;;;;7.50;99.90;;;;;;5064181;28;19920;-75
2023/01/28 13:18:34;;;;;;;;;;;7.40;99.90;;;;;;5042295;28;19935;-75
2023/01/28 13:21:01;;;;;;;;;;;7.20;99.90;;;;;;5058184;28;20368;-75
2023/01/28 13:23:29;;;;;;;;;;;7.10;99.90;;;;;;5062389;28;19968;-75
2023/01/28 13:25:55;;;;;;;;;;;7.10;99.90;;;;;;5062295;28;19921;-75
2023/01/28 13:28:25;;;;;;;;;;;8.50;99.90;;;;;;5038333;28;19920;-75
2023/01/28 13:30:59;;;;;;;;;;;9.00;99.90;;;;;;5056464;28;20364;-75
2023/01/28 13:33:27;;;;;;;;;;;7.00;99.90;;;;;;5043963;28;19964;-75
2023/01/28 13:35:54;;;;;;;;;;;8.10;99.90;;;;;;5038281;28;20272;-75
2023/01/28 13:38:20;;;;;;;;;;;7.50;99.90;;;;;;5060158;28;19933;-75
2023/01/28 13:40:56;;;;;;;;;;;8.60;99.90;;;;;;5058364;28;19924;-75
2023/01/28 13:43:25;;;;;;;;;;;6.80;99.90;;;;;;5056988;28;20326;-75
2023/01/28 13:45:58;;;;;;;;;;;7.10;99.90;;;;;;5063031;28;19931;-75
2023/01/28 13:48:23;;;;;;;;;;;6.70;99.90;;;;;;5038097;28;20023;-75
2023/01/28 13:50:51;;;;;;;;;;;6.60;99.90;;;;;;5060182;28;20091;-75
2023/01/28 13:53:26;;;;;;;;;;;6.60;99.90;;;;;;5059096;28;19917;-72
2023/01/28 13:55:54;;;;;;;;;;;6.60;99.90;;;;;;5028148;28;19928;-74
2023/01/28 13:58:31;;;;;;;;;;;7.80;99.90;;;;;;5062910;28;20279;-74
2023/01/28 14:01:15;;;;;;;;;;;7.60;99.90;;;;;;5056080;28;20423;-73
2023/01/28 14:03:43;;;;;;;;;;;6.60;99.90;;;;;;5037963;28;20000;-73
2023/01/28 14:06:18;;;;;;;;;;;6.40;99.90;;;;;;5029092;28;19920;-74
2023/01/28 14:08:46;;;;;;;;;;;6.30;99.90;;;;;;5055440;28;19921;-73
2023/01/28 14:11:21;;;;;;;;;;;6.30;99.90;;;;;;5026414;28;19925;-74
2023/01/28 14:13:49;;;;;;;;;;;6.30;99.90;;;;;;5028581;28;19917;-73
2023/01/28 14:16:41;;;;;;;;;;;6.20;99.90;;;;;;5044342;28;19927;-73
2023/01/28 14:19:10;;;;;;;;;;;6.20;99.90;;;;;;5023597;28;20021;-73
2023/01/28 14:21:37;;;;;;;;;;;7.00;99.90;;;;;;5061783;28;19931;-73
2023/01/28 14:24:12;;;;;;;;;;;7.20;99.90;;;;;;5060392;28;19920;-76
2023/01/28 14:26:57;;;;;;;;;;;6.20;99.90;;;;;;5063531;28;19920;-76
2023/01/28 14:29:26;;;;;;;;;;;6.20;99.90;;;;;;5030181;28;20372;-76
2023/01/28 14:31:52;;;;;;;;;;;7.10;99.90;;;;;;5058564;28;19971;-75
2023/01/28 14:34:18;;;;;;;;;;;7.70;99.90;;;;;;5030529;28;19921;-75
2023/01/28 14:36:48;;;;;;;;;;;6.10;99.90;;;;;;5061813;28;19920;-75
2023/01/28 14:39:18;;;;;;;;;;;6.10;99.90;;;;;;5059505;28;20390;-77
2023/01/28 14:41:45;;;;;;;;;;;6.10;99.90;;;;;;5044289;28;19928;-75
2023/01/28 14:44:21;;;;;;;;;;;7.60;99.90;;;;;;5044322;28;20001;-76
2023/01/28 14:46:55;;;;;;;;;;;6.00;99.90;;;;;;5055450;28;20034;-74
2023/01/28 14:49:30;;;;;;;;;;;6.10;99.90;;;;;;5032646;28;20029;-74
2023/01/28 14:52:06;;;;;;;;;;;6.00;99.90;;;;;;5031862;28;19921;-73
2023/01/28 14:54:36;;;;;;;;;;;6.00;99.90;;;;;;5045262;28;20307;-73
2023/01/28 14:57:02;;;;;;;;;;;6.00;99.90;;;;;;5064200;28;19927;-75
2023/01/28 14:59:47;;;;;;;;;;;5.60;99.90;;;;;;5045598;28;19970;-75
2023/01/28 15:02:30;;;;;;;;;;;6.00;99.90;;;;;;5026153;28;20400;-76
2023/01/28 15:05:06;;;;;;;;;;;6.00;99.90;;;;;;5055524;28;19920;-79
2023/01/28 15:07:32;;;;;;;;;;;6.00;99.90;;;;;;5039026;28;20401;-75
2023/01/28 15:10:01;;;;;;;;;;;7.40;99.90;;;;;;5065126;28;19920;-72
2023/01/28 15:12:30;;;;;;;;;;;6.40;99.90;;;;;;5056608;28;19996;-73
2023/01/28 15:14:55;;;;;;;;;;;6.50;99.90;;;;;;5039666;28;19936;-73